Ekspressen — LCBK — position and weather

sailwx.info

Track history (hours):
 
Tides and Currents Weather Stations Pressure Air Temp Water Temp Dewpoint Dewpoint Depression Visibility Wind Speed Wind Dir Waves Ship Positions

Ekspressen

Last reported at 2016-Dec-03 04:31 UTC. Time now 2016-Dec-10 05:04 UTC.
Position N 62°22' E 006°02'.

Length 33 m; draft 2 m.

Type: High speed craft. MMSI: 258416000.

Date/timePositionNaut miles runAvg speedWind from/ knotsBaromVisibWave heightAir tempDewpointWater temp
2016-Dec-03 04:31N 62°22' E 006°02'7 7.4
2016-Dec-03 03:34N 62°29' E 006°09'1 1.3
2016-Dec-03 02:33N 62°30' E 006°08'0 0.0
2016-Dec-03 01:33N 62°30' E 006°08'4 3.5
2016-Dec-03 00:33N 62°27' E 006°03'3 3.2
2016-Dec-02 23:33N 62°29' E 006°09'1 0.6
2016-Dec-02 22:33N 62°28' E 006°09'2 1.8
2016-Dec-02 21:33N 62°28' E 006°05'2 1.8
2016-Dec-02 20:32N 62°28' E 006°09'5 4.6
2016-Dec-02 19:33N 62°25' E 006°02'5 5.2
2016-Dec-02 18:33N 62°30' E 006°08'1 1.4
2016-Dec-02 17:33N 62°28' E 006°09'5 5.4
2016-Dec-02 16:33N 62°24' E 006°02'2 1.7
2016-Dec-02 15:33N 62°22' E 006°02'6 6.2
2016-Dec-02 14:33N 62°28' E 006°06'1 1.0
2016-Dec-02 13:32N 62°29' E 006°07'5 5.0
2016-Dec-02 12:33N 62°25' E 006°02'5 5.0
2016-Dec-02 11:33N 62°28' E 006°09'1 1.4
2016-Dec-02 10:33N 62°30' E 006°08'2 1.9
2016-Dec-02 09:33N 62°29' E 006°05'6 6.4
2016-Dec-02 08:33N 62°22' E 006°02'7 7.0
2016-Dec-02 07:33N 62°28' E 006°09'4 3.7
2016-Dec-02 06:30N 62°26' E 006°02'4 4.1
2016-Dec-02 05:31N 62°22' E 006°02'7 7.3
2016-Dec-02 04:32N 62°28' E 006°09'4 3.6
2016-Dec-02 03:32N 62°27' E 006°03'4 4.2
2016-Dec-02 02:32N 62°22' E 006°02'7 7.1
2016-Dec-02 01:33N 62°28' E 006°09'3 2.6
2016-Dec-02 00:33N 62°28' E 006°04'4 4.0
2016-Dec-01 23:33N 62°24' E 006°02'6 5.7
2016-Dec-01 22:33N 62°28' E 006°09'1 0.7
2016-Dec-01 21:33N 62°29' E 006°08'1 0.8
2016-Dec-01 20:33N 62°29' E 006°07'1 1.3
2016-Dec-01 19:32N 62°28' E 006°09'1 1.5
2016-Dec-01 18:33N 62°30' E 006°08'8 7.8
2016-Dec-01 17:31N 62°22' E 006°02'0 0.0
2016-Dec-01 16:33N 62°22' E 006°02'0 0.0
2016-Dec-01 15:33N 62°22' E 006°02'0 0.0
2016-Dec-01 14:33N 62°22' E 006°02'1 1.1
2016-Dec-01 13:32N 62°23' E 006°02'1 0.8
2016-Dec-01 12:28N 62°23' E 006°03'0 0.4
2016-Dec-01 11:19N 62°22' E 006°02'7 9.5
2016-Dec-01 10:34N 62°28' E 006°09'3 2.7
2016-Dec-01 09:19N 62°27' E 006°03'4 4.7
2016-Dec-01 08:30N 62°23' E 006°02'6 6.6
2016-Dec-01 07:33N 62°28' E 006°09'6 6.0
2016-Dec-01 06:29N 62°23' E 006°03'6 6.7
2016-Dec-01 05:32N 62°28' E 006°09'7 6.9
2016-Dec-01 04:33N 62°22' E 006°02'3 3.5
2016-Dec-01 03:33N 62°26' E 006°02'5 4.5
2016-Dec-01 02:33N 62°30' E 006°08'8 8.0
2016-Dec-01 01:33N 62°22' E 006°02'7 7.1
2016-Dec-01 00:33N 62°28' E 006°09'0 0.0
2016-Nov-30 23:31N 62°28' E 006°09'0 0.0
2016-Nov-30 22:33N 62°28' E 006°09'0 0.0
2016-Nov-30 21:33N 62°28' E 006°09'0 0.0
2016-Nov-30 20:32N 62°28' E 006°09'0 0.0
2016-Nov-30 19:33N 62°28' E 006°09'0 0.0
2016-Nov-30 18:33N 62°28' E 006°09'0 0.0
2016-Nov-30 17:33N 62°28' E 006°09'0 0.0
2016-Nov-30 16:31N 62°28' E 006°09'0 0.0
2016-Nov-30 15:33N 62°28' E 006°09'3 3.2
2016-Nov-30 14:33N 62°27' E 006°03'3 3.1
2016-Nov-30 13:33N 62°29' E 006°09'7 7.1
2016-Nov-30 12:33N 62°22' E 006°02'7 7.0
2016-Nov-30 11:33N 62°28' E 006°09'5 5.2
2016-Nov-30 10:33N 62°24' E 006°02'2 1.7
2016-Nov-30 09:28N 62°26' E 006°02'4 4.2
2016-Nov-30 08:32N 62°22' E 006°02'0 0.0
2016-Nov-30 07:32N 62°22' E 006°02'0 0.0
2016-Nov-30 06:33N 62°22' E 006°02'0 0.0
2016-Nov-30 05:32N 62°22' E 006°02'0 0.0
2016-Nov-30 04:30N 62°22' E 006°02'0 0.0
2016-Nov-30 03:30N 62°22' E 006°02'0 0.0
2016-Nov-30 02:33N 62°22' E 006°02'8 7.8
2016-Nov-30 01:33N 62°30' E 006°08'1 1.3
2016-Nov-30 00:33N 62°28' E 006°09'1 1.4
2016-Nov-29 23:33N 62°30' E 006°08'8 7.8
2016-Nov-29 22:32N 62°22' E 006°02'3 3.1
2016-Nov-29 21:32N 62°25' E 006°02'4 4.5
2016-Nov-29 20:33N 62°28' E 006°09'3 2.9
2016-Nov-29 19:32N 62°27' E 006°03'5 5.1
2016-Nov-29 18:32N 62°22' E 006°02'7 7.2
2016-Nov-29 17:33N 62°28' E 006°09'4 3.6
2016-Nov-29 16:32N 62°26' E 006°03'4 3.7
2016-Nov-29 15:33N 62°28' E 006°09'1 1.3
2016-Nov-29 14:33N 62°29' E 006°07'0 0.3
2016-Nov-29 13:32N 62°29' E 006°06'6 5.9
2016-Nov-29 12:29N 62°23' E 006°02'6 6.5
2016-Nov-29 11:33N 62°28' E 006°09'0 0.0
2016-Nov-29 10:33N 62°28' E 006°09'7 7.1
2016-Nov-29 09:33N 62°22' E 006°02'1 0.9
2016-Nov-29 08:31N 62°23' E 006°02'6 6.4
2016-Nov-29 07:33N 62°29' E 006°09'5 5.5
2016-Nov-29 06:33N 62°24' E 006°02'1 1.1
2016-Nov-29 05:33N 62°23' E 006°02'1 0.8
2016-Nov-29 04:33N 62°22' E 006°02'0 0.0
2016-Nov-29 03:33N 62°22' E 006°02'0 0.0
2016-Nov-29 02:34N 62°22' E 006°02'0 0.0
2016-Nov-29 01:30N 62°22' E 006°02'0 0.0
2016-Nov-29 00:32N 62°22' E 006°02'0 0.0
2016-Nov-28 23:32N 62°22' E 006°02'0 0.0
2016-Nov-28 22:32N 62°22' E 006°02'0 0.0
2016-Nov-28 21:31N 62°22' E 006°02'0 0.0
2016-Nov-28 20:32N 62°22' E 006°02'0 0.0
2016-Nov-28 19:30N 62°22' E 006°02'0 0.0
2016-Nov-28 18:32N 62°22' E 006°02'0 0.0
2016-Nov-28 17:33N 62°22' E 006°02'0 0.0
2016-Nov-28 16:33N 62°22' E 006°02'7 6.9
2016-Nov-28 15:32N 62°29' E 006°06'1 1.5
2016-Nov-28 14:34N 62°28' E 006°09'0 0.0
2016-Nov-28 13:33N 62°28' E 006°09'7 6.6
2016-Nov-28 12:33N 62°23' E 006°02'7 6.5
2016-Nov-28 11:33N 62°28' E 006°09'0 0.0
2016-Nov-28 10:33N 62°28' E 006°09'0 0.0
2016-Nov-28 09:33N 62°28' E 006°09'0 0.0
2016-Nov-28 08:33N 62°28' E 006°09'0 0.0
2016-Nov-28 07:33N 62°28' E 006°09'6 6.0
2016-Nov-28 06:30N 62°23' E 006°03'3 2.8
2016-Nov-28 05:33N 62°26' E 006°01'5 4.9
2016-Nov-28 04:33N 62°29' E 006°08'4 3.9
2016-Nov-28 03:33N 62°27' E 006°02'4 4.4
2016-Nov-28 02:32N 62°22' E 006°02'0 0.1
2016-Nov-28 01:32N 62°22' E 006°02'7 7.1
2016-Nov-28 00:32N 62°29' E 006°06'7 7.1
2016-Nov-27 23:32N 62°22' E 006°02'7 6.8
2016-Nov-27 22:29N 62°28' E 006°09'6 6.2
2016-Nov-27 21:29N 62°23' E 006°03'1 1.0
2016-Nov-27 20:33N 62°24' E 006°02'6 5.5
2016-Nov-27 19:33N 62°28' E 006°09'6 5.8
2016-Nov-27 18:29N 62°23' E 006°03'1 1.0
2016-Nov-27 17:34N 62°22' E 006°02'0 0.0
2016-Nov-27 16:32N 62°22' E 006°02'0 0.0
2016-Nov-27 15:30N 62°22' E 006°02'0 0.0
2016-Nov-27 14:31N 62°22' E 006°02'0 0.0
2016-Nov-27 13:33N 62°22' E 006°02'0 0.0
2016-Nov-27 12:33N 62°22' E 006°02'0 0.0
2016-Nov-27 11:33N 62°22' E 006°02'0 0.0
2016-Nov-27 10:31N 62°22' E 006°02'0 0.0
2016-Nov-27 09:32N 62°22' E 006°02'0 0.0
2016-Nov-27 08:32N 62°22' E 006°02'0 0.0
2016-Nov-27 07:33N 62°22' E 006°02'0 0.0
2016-Nov-27 06:33N 62°22' E 006°02'4 4.4
2016-Nov-27 05:33N 62°27' E 006°03'4 4.4
2016-Nov-27 04:33N 62°22' E 006°02'7 6.9
2016-Nov-27 03:32N 62°28' E 006°09'0 0.0
2016-Nov-27 02:33N 62°28' E 006°09'6 5.7
2016-Nov-27 01:33N 62°24' E 006°02'6 5.6
2016-Nov-27 00:33N 62°28' E 006°09'0 0.0
2016-Nov-26 23:33N 62°28' E 006°09'5 4.5
2016-Nov-26 22:33N 62°25' E 006°03'5 4.5
2016-Nov-26 21:33N 62°28' E 006°09'1 0.8
2016-Nov-26 20:33N 62°29' E 006°08'7 6.8
2016-Nov-26 19:32N 62°23' E 006°03'2 2.2
2016-Nov-26 18:33N 62°25' E 006°02'5 4.6
2016-Nov-26 17:32N 62°28' E 006°09'0 0.0
2016-Nov-26 16:33N 62°28' E 006°09'7 7.2
2016-Nov-26 15:33N 62°22' E 006°02'1 0.7
2016-Nov-26 14:19N 62°23' E 006°02'6 8.1
2016-Nov-26 13:33N 62°28' E 006°09'7 6.9
2016-Nov-26 12:32N 62°22' E 006°02'7 7.2
2016-Nov-26 11:33N 62°28' E 006°09'3 3.4
2016-Nov-26 10:34N 62°27' E 006°02'5 4.8
2016-Nov-26 09:32N 62°22' E 006°02'1 0.9
2016-Nov-26 08:32N 62°23' E 006°02'6 6.3
2016-Nov-26 07:33N 62°28' E 006°09'7 6.9
2016-Nov-26 06:31N 62°22' E 006°02'7 7.4
2016-Nov-26 05:33N 62°28' E 006°09'1 0.9
2016-Nov-26 04:33N 62°29' E 006°08'1 0.9
2016-Nov-26 03:32N 62°28' E 006°09'7 7.1
2016-Nov-26 02:32N 62°22' E 006°02'0 0.0
2016-Nov-26 01:32N 62°22' E 006°02'0 0.0
2016-Nov-26 00:32N 62°22' E 006°02'0 0.0
2016-Nov-25 23:30N 62°22' E 006°02'0 0.0
2016-Nov-25 22:31N 62°22' E 006°02'0 0.0
2016-Nov-25 21:30N 62°22' E 006°02'0 0.0
2016-Nov-25 20:33N 62°22' E 006°02'0 0.0
2016-Nov-25 19:31N 62°22' E 006°02'1 1.1
2016-Nov-25 18:32N 62°23' E 006°03'6 6.0
2016-Nov-25 17:32N 62°28' E 006°09'0 0.0
2016-Nov-25 16:33N 62°28' E 006°09'7 0.8
2016-Nov-25 07:22N 62°22' E 006°02'7 3.4
2016-Nov-25 05:17N 62°28' E 006°09'4 5.7
2016-Nov-25 04:34N 62°26' E 006°02'4 3.4
2016-Nov-25 03:31N 62°22' E 006°02'  
Track history (hours):
 
Tides and Currents Weather Stations Pressure Air Temp Water Temp Dewpoint Dewpoint Depression Visibility Wind Speed Wind Dir Waves Ship Positions

Ekspressen

Last reported at 2016-Dec-03 04:31 UTC. Time now 2016-Dec-10 05:04 UTC.
Position N 62°22' E 006°02'.

Length 33 m; draft 2 m.

Type: High speed craft. MMSI: 258416000.

Date/timePositionNaut miles runAvg speedWind from/ knotsBaromVisibWave heightAir tempDewpointWater temp
2016-Dec-03 04:31N 62°22' E 006°02'7 7.4
2016-Dec-03 03:34N 62°29' E 006°09'1 1.3
2016-Dec-03 02:33N 62°30' E 006°08'0 0.0
2016-Dec-03 01:33N 62°30' E 006°08'4 3.5
2016-Dec-03 00:33N 62°27' E 006°03'3 3.2
2016-Dec-02 23:33N 62°29' E 006°09'1 0.6
2016-Dec-02 22:33N 62°28' E 006°09'2 1.8
2016-Dec-02 21:33N 62°28' E 006°05'2 1.8
2016-Dec-02 20:32N 62°28' E 006°09'5 4.6
2016-Dec-02 19:33N 62°25' E 006°02'5 5.2
2016-Dec-02 18:33N 62°30' E 006°08'1 1.4
2016-Dec-02 17:33N 62°28' E 006°09'5 5.4
2016-Dec-02 16:33N 62°24' E 006°02'2 1.7
2016-Dec-02 15:33N 62°22' E 006°02'6 6.2
2016-Dec-02 14:33N 62°28' E 006°06'1 1.0
2016-Dec-02 13:32N 62°29' E 006°07'5 5.0
2016-Dec-02 12:33N 62°25' E 006°02'5 5.0
2016-Dec-02 11:33N 62°28' E 006°09'1 1.4
2016-Dec-02 10:33N 62°30' E 006°08'2 1.9
2016-Dec-02 09:33N 62°29' E 006°05'6 6.4
2016-Dec-02 08:33N 62°22' E 006°02'7 7.0
2016-Dec-02 07:33N 62°28' E 006°09'4 3.7
2016-Dec-02 06:30N 62°26' E 006°02'4 4.1
2016-Dec-02 05:31N 62°22' E 006°02'7 7.3
2016-Dec-02 04:32N 62°28' E 006°09'4 3.6
2016-Dec-02 03:32N 62°27' E 006°03'4 4.2
2016-Dec-02 02:32N 62°22' E 006°02'7 7.1
2016-Dec-02 01:33N 62°28' E 006°09'3 2.6
2016-Dec-02 00:33N 62°28' E 006°04'4 4.0
2016-Dec-01 23:33N 62°24' E 006°02'6 5.7
2016-Dec-01 22:33N 62°28' E 006°09'1 0.7
2016-Dec-01 21:33N 62°29' E 006°08'1 0.8
2016-Dec-01 20:33N 62°29' E 006°07'1 1.3
2016-Dec-01 19:32N 62°28' E 006°09'1 1.5
2016-Dec-01 18:33N 62°30' E 006°08'8 7.8
2016-Dec-01 17:31N 62°22' E 006°02'0 0.0
2016-Dec-01 16:33N 62°22' E 006°02'0 0.0
2016-Dec-01 15:33N 62°22' E 006°02'0 0.0
2016-Dec-01 14:33N 62°22' E 006°02'1 1.1
2016-Dec-01 13:32N 62°23' E 006°02'1 0.8
2016-Dec-01 12:28N 62°23' E 006°03'0 0.4
2016-Dec-01 11:19N 62°22' E 006°02'7 9.5
2016-Dec-01 10:34N 62°28' E 006°09'3 2.7
2016-Dec-01 09:19N 62°27' E 006°03'4 4.7
2016-Dec-01 08:30N 62°23' E 006°02'6 6.6
2016-Dec-01 07:33N 62°28' E 006°09'6 6.0
2016-Dec-01 06:29N 62°23' E 006°03'6 6.7
2016-Dec-01 05:32N 62°28' E 006°09'7 6.9
2016-Dec-01 04:33N 62°22' E 006°02'3 3.5
2016-Dec-01 03:33N 62°26' E 006°02'5 4.5
2016-Dec-01 02:33N 62°30' E 006°08'8 8.0
2016-Dec-01 01:33N 62°22' E 006°02'7 7.1
2016-Dec-01 00:33N 62°28' E 006°09'0 0.0
2016-Nov-30 23:31N 62°28' E 006°09'0 0.0
2016-Nov-30 22:33N 62°28' E 006°09'0 0.0
2016-Nov-30 21:33N 62°28' E 006°09'0 0.0
2016-Nov-30 20:32N 62°28' E 006°09'0 0.0
2016-Nov-30 19:33N 62°28' E 006°09'0 0.0
2016-Nov-30 18:33N 62°28' E 006°09'0 0.0
2016-Nov-30 17:33N 62°28' E 006°09'0 0.0
2016-Nov-30 16:31N 62°28' E 006°09'0 0.0
2016-Nov-30 15:33N 62°28' E 006°09'3 3.2
2016-Nov-30 14:33N 62°27' E 006°03'3 3.1
2016-Nov-30 13:33N 62°29' E 006°09'7 7.1
2016-Nov-30 12:33N 62°22' E 006°02'7 7.0
2016-Nov-30 11:33N 62°28' E 006°09'5 5.2
2016-Nov-30 10:33N 62°24' E 006°02'2 1.7
2016-Nov-30 09:28N 62°26' E 006°02'4 4.2
2016-Nov-30 08:32N 62°22' E 006°02'0 0.0
2016-Nov-30 07:32N 62°22' E 006°02'0 0.0
2016-Nov-30 06:33N 62°22' E 006°02'0 0.0
2016-Nov-30 05:32N 62°22' E 006°02'0 0.0
2016-Nov-30 04:30N 62°22' E 006°02'0 0.0
2016-Nov-30 03:30N 62°22' E 006°02'0 0.0
2016-Nov-30 02:33N 62°22' E 006°02'8 7.8
2016-Nov-30 01:33N 62°30' E 006°08'1 1.3
2016-Nov-30 00:33N 62°28' E 006°09'1 1.4
2016-Nov-29 23:33N 62°30' E 006°08'8 7.8
2016-Nov-29 22:32N 62°22' E 006°02'3 3.1
2016-Nov-29 21:32N 62°25' E 006°02'4 4.5
2016-Nov-29 20:33N 62°28' E 006°09'3 2.9
2016-Nov-29 19:32N 62°27' E 006°03'5 5.1
2016-Nov-29 18:32N 62°22' E 006°02'7 7.2
2016-Nov-29 17:33N 62°28' E 006°09'4 3.6
2016-Nov-29 16:32N 62°26' E 006°03'4 3.7
2016-Nov-29 15:33N 62°28' E 006°09'1 1.3
2016-Nov-29 14:33N 62°29' E 006°07'0 0.3
2016-Nov-29 13:32N 62°29' E 006°06'6 5.9
2016-Nov-29 12:29N 62°23' E 006°02'6 6.5
2016-Nov-29 11:33N 62°28' E 006°09'0 0.0
2016-Nov-29 10:33N 62°28' E 006°09'7 7.1
2016-Nov-29 09:33N 62°22' E 006°02'1 0.9
2016-Nov-29 08:31N 62°23' E 006°02'6 6.4
2016-Nov-29 07:33N 62°29' E 006°09'5 5.5
2016-Nov-29 06:33N 62°24' E 006°02'1 1.1
2016-Nov-29 05:33N 62°23' E 006°02'1 0.8
2016-Nov-29 04:33N 62°22' E 006°02'0 0.0
2016-Nov-29 03:33N 62°22' E 006°02'0 0.0
2016-Nov-29 02:34N 62°22' E 006°02'0 0.0
2016-Nov-29 01:30N 62°22' E 006°02'0 0.0
2016-Nov-29 00:32N 62°22' E 006°02'0 0.0
2016-Nov-28 23:32N 62°22' E 006°02'0 0.0
2016-Nov-28 22:32N 62°22' E 006°02'0 0.0
2016-Nov-28 21:31N 62°22' E 006°02'0 0.0
2016-Nov-28 20:32N 62°22' E 006°02'0 0.0
2016-Nov-28 19:30N 62°22' E 006°02'0 0.0
2016-Nov-28 18:32N 62°22' E 006°02'0 0.0
2016-Nov-28 17:33N 62°22' E 006°02'0 0.0
2016-Nov-28 16:33N 62°22' E 006°02'7 6.9
2016-Nov-28 15:32N 62°29' E 006°06'1 1.5
2016-Nov-28 14:34N 62°28' E 006°09'0 0.0
2016-Nov-28 13:33N 62°28' E 006°09'7 6.6
2016-Nov-28 12:33N 62°23' E 006°02'7 6.5
2016-Nov-28 11:33N 62°28' E 006°09'0 0.0
2016-Nov-28 10:33N 62°28' E 006°09'0 0.0
2016-Nov-28 09:33N 62°28' E 006°09'0 0.0
2016-Nov-28 08:33N 62°28' E 006°09'0 0.0
2016-Nov-28 07:33N 62°28' E 006°09'6 6.0
2016-Nov-28 06:30N 62°23' E 006°03'3 2.8
2016-Nov-28 05:33N 62°26' E 006°01'5 4.9
2016-Nov-28 04:33N 62°29' E 006°08'4 3.9
2016-Nov-28 03:33N 62°27' E 006°02'4 4.4
2016-Nov-28 02:32N 62°22' E 006°02'0 0.1
2016-Nov-28 01:32N 62°22' E 006°02'7 7.1
2016-Nov-28 00:32N 62°29' E 006°06'7 7.1
2016-Nov-27 23:32N 62°22' E 006°02'7 6.8
2016-Nov-27 22:29N 62°28' E 006°09'6 6.2
2016-Nov-27 21:29N 62°23' E 006°03'1 1.0
2016-Nov-27 20:33N 62°24' E 006°02'6 5.5
2016-Nov-27 19:33N 62°28' E 006°09'6 5.8
2016-Nov-27 18:29N 62°23' E 006°03'1 1.0
2016-Nov-27 17:34N 62°22' E 006°02'0 0.0
2016-Nov-27 16:32N 62°22' E 006°02'0 0.0
2016-Nov-27 15:30N 62°22' E 006°02'0 0.0
2016-Nov-27 14:31N 62°22' E 006°02'0 0.0
2016-Nov-27 13:33N 62°22' E 006°02'0 0.0
2016-Nov-27 12:33N 62°22' E 006°02'0 0.0
2016-Nov-27 11:33N 62°22' E 006°02'0 0.0
2016-Nov-27 10:31N 62°22' E 006°02'0 0.0
2016-Nov-27 09:32N 62°22' E 006°02'0 0.0
2016-Nov-27 08:32N 62°22' E 006°02'0 0.0
2016-Nov-27 07:33N 62°22' E 006°02'0 0.0
2016-Nov-27 06:33N 62°22' E 006°02'4 4.4
2016-Nov-27 05:33N 62°27' E 006°03'4 4.4
2016-Nov-27 04:33N 62°22' E 006°02'7 6.9
2016-Nov-27 03:32N 62°28' E 006°09'0 0.0
2016-Nov-27 02:33N 62°28' E 006°09'6 5.7
2016-Nov-27 01:33N 62°24' E 006°02'6 5.6
2016-Nov-27 00:33N 62°28' E 006°09'0 0.0
2016-Nov-26 23:33N 62°28' E 006°09'5 4.5
2016-Nov-26 22:33N 62°25' E 006°03'5 4.5
2016-Nov-26 21:33N 62°28' E 006°09'1 0.8
2016-Nov-26 20:33N 62°29' E 006°08'7 6.8
2016-Nov-26 19:32N 62°23' E 006°03'2 2.2
2016-Nov-26 18:33N 62°25' E 006°02'5 4.6
2016-Nov-26 17:32N 62°28' E 006°09'0 0.0
2016-Nov-26 16:33N 62°28' E 006°09'7 7.2
2016-Nov-26 15:33N 62°22' E 006°02'1 0.7
2016-Nov-26 14:19N 62°23' E 006°02'6 8.1
2016-Nov-26 13:33N 62°28' E 006°09'7 6.9
2016-Nov-26 12:32N 62°22' E 006°02'7 7.2
2016-Nov-26 11:33N 62°28' E 006°09'3 3.4
2016-Nov-26 10:34N 62°27' E 006°02'5 4.8
2016-Nov-26 09:32N 62°22' E 006°02'1 0.9
2016-Nov-26 08:32N 62°23' E 006°02'6 6.3
2016-Nov-26 07:33N 62°28' E 006°09'7 6.9
2016-Nov-26 06:31N 62°22' E 006°02'7 7.4
2016-Nov-26 05:33N 62°28' E 006°09'1 0.9
2016-Nov-26 04:33N 62°29' E 006°08'1 0.9
2016-Nov-26 03:32N 62°28' E 006°09'7 7.1
2016-Nov-26 02:32N 62°22' E 006°02'0 0.0
2016-Nov-26 01:32N 62°22' E 006°02'0 0.0
2016-Nov-26 00:32N 62°22' E 006°02'0 0.0
2016-Nov-25 23:30N 62°22' E 006°02'0 0.0
2016-Nov-25 22:31N 62°22' E 006°02'0 0.0
2016-Nov-25 21:30N 62°22' E 006°02'0 0.0
2016-Nov-25 20:33N 62°22' E 006°02'0 0.0
2016-Nov-25 19:31N 62°22' E 006°02'1 1.1
2016-Nov-25 18:32N 62°23' E 006°03'6 6.0
2016-Nov-25 17:32N 62°28' E 006°09'0 0.0
2016-Nov-25 16:33N 62°28' E 006°09'7 0.8
2016-Nov-25 07:22N 62°22' E 006°02'7 3.4
2016-Nov-25 05:17N 62°28' E 006°09'4 5.7
2016-Nov-25 04:34N 62°26' E 006°02'4 3.4
2016-Nov-25 03:31N 62°22' E 006°02'  

Dump ship's entire track history